Time;durP1;ratioP1;P1;durP2;ratioP2;P2;SDS_P1;SDS_P2;PMS_P1;PMS_P2;Temp;Humidity;BMP_temperature;BMP_pressure;BME280_temperature;BME280_humidity;BME280_pressure;Samples;Min_cycle;Max_cycle;Signal;HPM_P1;HPM_P2
2022/09/25 10:39:23;;;;;;;0.50;0.50;;;15.30;1.00;;;;;;5131495;27;20542;-77
2022/09/25 10:44:32;;;;;;;0.60;0.60;;;15.10;31.40;;;;;;5571098;22;20228;-73
2022/09/25 10:50:17;;;;;;;0.40;0.40;;;15.10;99.90;;;;;;5107024;28;20545;-73
2022/09/25 10:52:51;;;;;;;0.40;0.40;;;15.00;99.90;;;;;;5108911;28;20177;-72
2022/09/25 10:55:29;;;;;;;0.40;0.40;;;15.00;99.90;;;;;;5087325;28;20199;-72
2022/09/25 10:58:08;;;;;;;0.40;0.40;;;14.90;99.90;;;;;;5125858;22;20229;-80
2022/09/25 11:00:42;;;;;;;0.50;0.50;;;14.80;99.90;;;;;;5096471;28;20177;-78
2022/09/25 11:03:20;;;;;;;0.50;0.50;;;14.80;99.90;;;;;;5101802;28;20177;-80
2022/09/25 11:08:37;;;;;;;0.50;0.50;;;14.90;99.90;;;;;;5704467;22;20240;-72
2022/09/25 11:11:04;;;;;;;0.40;0.40;;;15.00;99.90;;;;;;5104649;28;20207;-70
2022/09/25 11:13:37;;;;;;;0.40;0.40;;;15.00;99.90;;;;;;5114948;27;20197;-70
2022/09/25 11:16:09;;;;;;;0.40;0.40;;;14.90;99.90;;;;;;5108392;28;20173;-71
2022/09/25 11:18:48;;;;;;;0.43;0.43;;;14.80;99.90;;;;;;5107827;28;20283;-72
2022/09/25 11:21:29;;;;;;;0.40;0.40;;;14.70;99.90;;;;;;5108593;28;20217;-71
2022/09/25 11:24:02;;;;;;;0.40;0.40;;;14.70;99.90;;;;;;5131078;22;20229;-81
2022/09/25 11:26:36;;;;;;;0.40;0.40;;;14.70;99.90;;;;;;5079455;28;20229;-81
2022/09/25 11:29:04;;;;;;;0.40;0.40;;;14.70;99.90;;;;;;5070902;28;20189;-80
2022/09/25 11:31:50;;;;;;;0.50;0.50;;;14.70;99.90;;;;;;5066528;28;20188;-80
2022/09/25 11:34:57;;;;;;;0.40;0.40;;;14.70;99.90;;;;;;5074298;28;20458;-81
2022/09/25 11:37:54;;;;;;;0.40;0.40;;;14.60;99.90;;;;;;5073442;28;20203;-79
2022/09/25 11:41:15;;;;;;;0.40;0.40;;;14.50;99.90;;;;;;5067385;28;20235;-78
2022/09/25 11:44:08;;;;;;;0.40;0.40;;;14.40;99.90;;;;;;5067592;28;20198;-78
2022/09/25 11:47:00;;;;;;;0.53;0.53;;;14.30;99.90;;;;;;5067064;28;20194;-78
2022/09/25 11:49:30;;;;;;;0.40;0.40;;;14.10;99.90;;;;;;5017780;28;20449;-78
2022/09/25 11:52:22;;;;;;;0.40;0.40;;;13.90;99.90;;;;;;5052620;28;20190;-79
2022/09/25 11:55:14;;;;;;;0.40;0.40;;;13.90;99.90;;;;;;5052801;28;20175;-79
2022/09/25 11:58:08;;;;;;;0.40;0.40;;;13.80;99.90;;;;;;5044991;28;21896;-78
2022/09/25 12:00:55;;;;;;;0.40;0.40;;;13.80;99.90;;;;;;5052882;28;20182;-78
2022/09/25 12:03:34;;;;;;;0.40;0.40;;;13.80;99.90;;;;;;5051302;28;20175;-78
2022/09/25 12:06:24;;;;;;;0.50;0.50;;;13.80;99.90;;;;;;5052488;28;20172;-79
2022/09/25 12:09:25;;;;;;;0.40;0.40;;;13.90;99.90;;;;;;5067751;28;20224;-79
2022/09/25 12:12:23;;;;;;;0.50;0.50;;;14.00;99.90;;;;;;5074088;28;20304;-79
2022/09/25 12:15:23;;;;;;;0.40;0.40;;;14.20;99.90;;;;;;5084632;28;20178;-80
2022/09/25 12:18:01;;;;;;;0.40;0.40;;;14.40;99.90;;;;;;5086159;28;20285;-79
2022/09/25 12:20:43;;;;;;;0.50;0.50;;;14.80;99.90;;;;;;5087088;28;20251;-79
2022/09/25 12:23:32;;;;;;;0.40;0.40;;;15.70;99.90;;;;;;5087998;28;20194;-79
2022/09/25 12:26:19;;;;;;;0.40;0.40;;;15.50;99.90;;;;;;5086073;28;20182;-80
2022/09/25 12:28:51;;;;;;;0.40;0.40;;;15.30;99.90;;;;;;5086663;28;20220;-80
2022/09/25 12:31:32;;;;;;;0.40;0.40;;;15.10;99.90;;;;;;5088862;28;20186;-79
2022/09/25 12:34:05;;;;;;;0.40;0.40;;;15.00;99.90;;;;;;5086160;28;20189;-79
2022/09/25 12:36:45;;;;;;;0.47;0.47;;;14.90;99.90;;;;;;5064912;28;20375;-80
2022/09/25 12:39:36;;;;;;;0.50;0.50;;;14.80;99.90;;;;;;5064441;28;20268;-80
2022/09/25 12:42:28;;;;;;;0.50;0.50;;;14.70;99.90;;;;;;5061042;28;20176;-80
2022/09/25 12:45:12;;;;;;;0.40;0.40;;;14.40;99.90;;;;;;5064561;28;20194;-80
2022/09/25 12:47:59;;;;;;;0.40;0.40;;;14.40;99.90;;;;;;5063826;28;20261;-80
2022/09/25 12:50:29;;;;;;;0.40;0.40;;;14.20;99.90;;;;;;5065675;28;20217;-80
2022/09/25 12:53:23;;;;;;;0.40;0.40;;;14.10;99.90;;;;;;5064979;28;20530;-80
2022/09/25 12:55:58;;;;;;;0.40;0.40;;;14.10;99.90;;;;;;5058988;28;20194;-81
2022/09/25 12:58:36;;;;;;;0.40;0.40;;;14.00;99.90;;;;;;5064763;28;20215;-80
2022/09/25 13:01:11;;;;;;;0.43;0.43;;;13.90;99.90;;;;;;5047429;28;20202;-81
2022/09/25 13:03:56;;;;;;;0.40;0.40;;;14.00;99.90;;;;;;5062980;28;20181;-81
2022/09/25 13:06:47;;;;;;;0.40;0.40;;;14.10;99.90;;;;;;5064681;28;20240;-81
2022/09/25 13:09:43;;;;;;;0.40;0.40;;;14.20;99.90;;;;;;5062578;28;20199;-81
2022/09/25 13:12:38;;;;;;;0.40;0.40;;;14.30;99.90;;;;;;5060552;28;20183;-80
2022/09/25 13:15:17;;;;;;;0.40;0.40;;;14.40;99.90;;;;;;5048089;28;20175;-81
2022/09/25 13:17:42;;;;;;;0.40;0.40;;;14.50;99.90;;;;;;5061669;28;20215;-82
2022/09/25 13:20:30;;;;;;;0.40;0.40;;;14.50;99.90;;;;;;5063782;28;20247;-82
2022/09/25 13:22:58;;;;;;;0.43;0.43;;;14.70;99.90;;;;;;5061494;28;20273;-81
2022/09/25 13:25:25;;;;;;;0.40;0.40;;;14.80;99.90;;;;;;5078938;28;20175;-77
2022/09/25 13:27:53;;;;;;;0.40;0.40;;;14.90;99.90;;;;;;5054391;28;20211;-79
2022/09/25 13:30:29;;;;;;;0.40;0.40;;;14.80;99.90;;;;;;5060924;28;20178;-78
2022/09/25 13:33:01;;;;;;;0.43;0.43;;;14.90;99.90;;;;;;5058225;28;20181;-80
2022/09/25 13:35:27;;;;;;;0.50;0.50;;;15.00;99.90;;;;;;5057574;28;20175;-79
2022/09/25 13:37:55;;;;;;;0.40;0.40;;;15.30;99.90;;;;;;5059420;28;20249;-81
2022/09/25 13:40:42;;;;;;;0.40;0.40;;;15.60;99.90;;;;;;5062735;28;20643;-81
2022/09/25 13:43:27;;;;;;;0.40;0.40;;;15.60;99.90;;;;;;5061555;28;20194;-79
2022/09/25 13:46:22;;;;;;;0.40;0.40;;;15.70;99.90;;;;;;5062864;28;20178;-79
2022/09/25 13:48:51;;;;;;;0.40;0.40;;;15.60;63.20;;;;;;5061011;28;20199;-80
2022/09/25 13:51:16;;;;;;;0.40;0.40;;;15.50;42.10;;;;;;5060317;28;20186;-81
2022/09/25 13:54:03;;;;;;;0.40;0.40;;;15.60;99.90;;;;;;5062276;28;20224;-80
2022/09/25 13:56:32;;;;;;;0.40;0.40;;;15.60;99.90;;;;;;5046012;28;20180;-80
2022/09/25 13:59:18;;;;;;;0.33;0.33;;;15.60;99.90;;;;;;5035636;28;20249;-80
2022/09/25 14:01:54;;;;;;;0.40;0.40;;;15.60;99.90;;;;;;5034275;28;20668;-81
2022/09/25 14:04:28;;;;;;;0.40;0.40;;;15.40;99.90;;;;;;5033957;28;20171;-80
2022/09/25 14:07:15;;;;;;;0.47;0.47;;;15.20;99.90;;;;;;5034569;28;20167;-80
2022/09/25 14:09:47;;;;;;;0.40;0.40;;;15.10;99.90;;;;;;5033452;28;20192;-80
2022/09/25 14:12:41;;;;;;;0.40;0.40;;;15.10;99.90;;;;;;5034515;28;20175;-81
2022/09/25 14:15:17;;;;;;;0.40;0.40;;;15.30;99.90;;;;;;5033408;28;20183;-79
2022/09/25 14:17:44;;;;;;;0.40;0.40;;;15.40;99.90;;;;;;5035634;28;21181;-80
2022/09/25 14:20:28;;;;;;;0.40;0.40;;;15.30;99.90;;;;;;5036826;28;20182;-79
2022/09/25 14:22:56;;;;;;;0.40;0.40;;;15.30;99.90;;;;;;5038305;28;20184;-79
2022/09/25 14:25:41;;;;;;;0.40;0.40;;;15.20;99.90;;;;;;5036026;28;20183;-78
2022/09/25 14:28:25;;;;;;;0.50;0.50;;;15.00;99.90;;;;;;5035769;28;20210;-80
2022/09/25 14:30:55;;;;;;;0.40;0.40;;;14.80;80.90;;;;;;5039416;28;20236;-80
2022/09/25 14:33:44;;;;;;;0.47;0.47;;;14.70;99.90;;;;;;5052806;28;20167;-79
2022/09/25 14:36:22;;;;;;;0.40;0.40;;;14.70;99.90;;;;;;5077840;28;20189;-80
2022/09/25 14:39:18;;;;;;;0.40;0.40;;;14.60;99.90;;;;;;5074745;28;20340;-80
2022/09/25 14:42:21;;;;;;;0.40;0.40;;;14.60;99.90;;;;;;5069838;28;20179;-81
2022/09/25 14:45:11;;;;;;;0.40;0.40;;;14.60;99.90;;;;;;5056684;28;20189;-80
2022/09/25 14:47:46;;;;;;;0.40;0.40;;;14.60;99.90;;;;;;5019521;28;20179;-79
2022/09/25 14:50:34;;;;;;;0.40;0.40;;;14.60;99.90;;;;;;5065389;28;20173;-78
2022/09/25 14:53:10;;;;;;;0.50;0.50;;;14.70;99.90;;;;;;5075829;28;20522;-80
2022/09/25 14:55:40;;;;;;;0.50;0.50;;;14.80;99.90;;;;;;5071834;28;20681;-78
2022/09/25 14:58:14;;;;;;;0.40;0.40;;;15.10;70.70;;;;;;5072354;28;20226;-79
2022/09/25 15:00:52;;;;;;;0.33;0.33;;;15.10;25.10;;;;;;5073190;28;20178;-79
2022/09/25 15:03:23;;;;;;;0.50;0.50;;;15.30;24.70;;;;;;5072982;28;20166;-79
2022/09/25 15:05:50;;;;;;;0.30;0.30;;;15.30;1.00;;;;;;5072666;28;20174;-78
2022/09/25 15:08:22;;;;;;;0.50;0.50;;;15.40;1.00;;;;;;5071936;28;20202;-78
2022/09/25 15:10:48;;;;;;;0.40;0.40;;;15.70;1.00;;;;;;5072075;28;20186;-78
2022/09/25 15:13:19;;;;;;;0.40;0.40;;;15.90;1.00;;;;;;5072085;28;20186;-78
2022/09/25 15:18:37;;;;;;;0.50;0.50;;;15.90;1.00;;;;;;5064063;28;20263;-78
2022/09/25 15:21:06;;;;;;;0.47;0.47;;;15.40;1.00;;;;;;5052759;28;20258;-79
2022/09/25 15:23:33;;;;;;;0.50;0.50;;;15.20;1.00;;;;;;5050543;28;20194;-79
2022/09/25 15:25:59;;;;;;;0.40;0.40;;;15.10;1.00;;;;;;5056432;28;20175;-78
2022/09/25 15:28:26;;;;;;;0.40;0.40;;;15.20;1.00;;;;;;5055642;28;20211;-80
2022/09/25 15:31:03;;;;;;;0.40;0.40;;;15.00;1.00;;;;;;5056676;28;20241;-78
2022/09/25 15:33:33;;;;;;;0.40;0.40;;;15.00;7.70;;;;;;5058209;28;20665;-80
2022/09/25 15:36:21;;;;;;;0.33;0.33;;;15.00;4.10;;;;;;5055587;28;20733;-76
2022/09/25 15:39:07;;;;;;;0.50;0.50;;;15.00;30.60;;;;;;5054447;28;20280;-78
2022/09/25 15:41:34;;;;;;;0.50;0.50;;;14.90;37.30;;;;;;5056883;28;20570;-78
2022/09/25 15:44:21;;;;;;;0.40;0.40;;;14.80;1.00;;;;;;5057359;28;20163;-79
2022/09/25 15:47:00;;;;;;;0.43;0.43;;;14.60;1.00;;;;;;5056964;28;20544;-78
2022/09/25 15:49:26;;;;;;;0.40;0.40;;;14.70;1.00;;;;;;5055208;28;20207;-77
2022/09/25 15:52:00;;;;;;;0.40;0.40;;;14.80;1.00;;;;;;5055607;28;20175;-78
2022/09/25 15:54:50;;;;;;;0.40;0.40;;;15.00;1.00;;;;;;5053651;28;20190;-80
2022/09/25 15:57:36;;;;;;;0.53;0.53;;;15.00;1.00;;;;;;5066476;28;20207;-78
2022/09/25 16:05:47;;;;;;;0.40;0.40;;;14.50;1.00;;;;;;5056052;28;20190;-79
2022/09/25 16:08:35;;;;;;;0.40;0.40;;;14.30;20.80;;;;;;5055732;28;20203;-78
2022/09/25 16:11:14;;;;;;;0.50;0.50;;;14.10;1.00;;;;;;5055914;28;20175;-78
2022/09/25 16:13:43;;;;;;;0.40;0.40;;;14.10;1.00;;;;;;5055850;28;20179;-78
2022/09/25 16:16:30;;;;;;;0.50;0.50;;;14.00;1.00;;;;;;5055717;28;20183;-78
2022/09/25 16:19:17;;;;;;;0.40;0.40;;;14.00;1.00;;;;;;5062464;28;20220;-78
2022/09/25 16:21:42;;;;;;;0.40;0.40;;;13.90;43.40;;;;;;5074333;28;20198;-79
2022/09/25 16:24:18;;;;;;;0.40;0.40;;;13.90;76.30;;;;;;5074200;28;20296;-78
2022/09/25 16:26:44;;;;;;;0.40;0.40;;;13.80;54.80;;;;;;5075085;28;20171;-77
2022/09/25 16:29:10;;;;;;;0.40;0.40;;;13.80;81.30;;;;;;5076894;28;20199;-79
2022/09/25 16:31:37;;;;;;;0.40;0.40;;;13.70;99.90;;;;;;5074967;28;20197;-79
2022/09/25 16:34:04;;;;;;;0.50;0.50;;;13.70;99.90;;;;;;5075773;28;20253;-79
2022/09/25 16:36:41;;;;;;;0.60;0.60;;;13.60;99.90;;;;;;5075048;28;20182;-80
2022/09/25 16:39:07;;;;;;;0.40;0.40;;;13.60;99.90;;;;;;5075336;28;20221;-80
2022/09/25 16:41:34;;;;;;;0.40;0.40;;;13.60;99.90;;;;;;5075299;28;20166;-77
2022/09/25 16:44:13;;;;;;;0.40;0.40;;;13.60;99.90;;;;;;5077558;28;20163;-80
2022/09/25 16:46:41;;;;;;;0.40;0.40;;;13.50;99.90;;;;;;5069790;28;20242;-79
2022/09/25 16:49:07;;;;;;;0.50;0.50;;;13.60;99.90;;;;;;5070862;28;20194;-79
2022/09/25 16:51:33;;;;;;;0.30;0.30;;;13.50;99.90;;;;;;5075213;28;20182;-76
2022/09/25 16:54:00;;;;;;;0.40;0.40;;;13.50;99.90;;;;;;5073710;28;20171;-78
2022/09/25 16:56:28;;;;;;;0.50;0.50;;;13.50;99.90;;;;;;5074141;28;20511;-78
2022/09/25 16:58:55;;;;;;;0.40;0.40;;;13.50;99.90;;;;;;5055520;28;20455;-78
2022/09/25 17:01:22;;;;;;;0.43;0.43;;;13.40;99.90;;;;;;5054111;28;20217;-79
2022/09/25 17:03:49;;;;;;;0.50;0.50;;;13.30;99.90;;;;;;5049299;28;20538;-79
2022/09/25 17:06:16;;;;;;;0.50;0.50;;;13.20;99.90;;;;;;5052210;28;20209;-78
2022/09/25 17:08:41;;;;;;;0.50;0.50;;;13.10;99.90;;;;;;5048210;28;20224;-78
2022/09/25 17:11:08;;;;;;;0.40;0.40;;;12.90;99.90;;;;;;5045269;28;20274;-77
2022/09/25 17:13:34;;;;;;;0.50;0.50;;;12.80;99.90;;;;;;5046897;28;20309;-78
2022/09/25 17:15:59;;;;;;;0.50;0.50;;;12.80;99.90;;;;;;5054316;28;20207;-77
2022/09/25 17:18:25;;;;;;;0.47;0.47;;;12.70;99.90;;;;;;5049162;28;20225;-77
2022/09/25 17:20:52;;;;;;;0.40;0.40;;;12.70;99.90;;;;;;5050055;28;20507;-78
2022/09/25 17:23:19;;;;;;;0.50;0.50;;;12.70;99.90;;;;;;5053911;28;20199;-80
2022/09/25 17:26:15;;;;;;;0.40;0.40;;;12.60;99.90;;;;;;5053839;28;20178;-80
2022/09/25 17:28:41;;;;;;;0.50;0.50;;;12.60;99.90;;;;;;5053950;28;20186;-78
2022/09/25 17:31:17;;;;;;;0.40;0.40;;;12.60;99.90;;;;;;5055636;28;20186;-79
2022/09/25 17:33:43;;;;;;;0.50;0.50;;;12.50;99.90;;;;;;5054835;28;20198;-79
2022/09/25 17:36:10;;;;;;;0.40;0.40;;;12.60;99.90;;;;;;5054665;28;20190;-79
2022/09/25 17:38:36;;;;;;;0.47;0.47;;;12.60;99.90;;;;;;5053503;28;20222;-79
2022/09/25 17:41:04;;;;;;;0.50;0.50;;;12.60;99.90;;;;;;5054238;28;20167;-79
2022/09/25 17:43:30;;;;;;;0.47;0.47;;;12.60;99.90;;;;;;5053786;28;20199;-78
2022/09/25 17:45:57;;;;;;;0.40;0.40;;;12.60;99.90;;;;;;5053723;28;20171;-79
2022/09/25 17:48:26;;;;;;;0.50;0.50;;;12.50;99.90;;;;;;5053058;28;20675;-79
2022/09/25 17:50:59;;;;;;;0.40;0.40;;;12.50;99.90;;;;;;5053234;28;20725;-79
2022/09/25 17:53:31;;;;;;;0.40;0.40;;;12.50;99.90;;;;;;5035695;28;20575;-78
2022/09/25 17:55:58;;;;;;;0.47;0.47;;;12.50;99.90;;;;;;5033487;28;20177;-78
2022/09/25 17:58:26;;;;;;;0.50;0.50;;;12.40;99.90;;;;;;5033581;28;20219;-78
2022/09/25 18:00:53;;;;;;;0.40;0.40;;;12.40;99.90;;;;;;5034339;28;20222;-79
2022/09/25 18:03:20;;;;;;;0.47;0.47;;;12.30;99.90;;;;;;5033313;28;20205;-78
2022/09/25 18:05:46;;;;;;;0.50;0.50;;;12.20;99.90;;;;;;5033575;28;20269;-78
2022/09/25 18:08:12;;;;;;;0.40;0.40;;;12.20;99.90;;;;;;5033124;28;20594;-79
2022/09/25 18:10:38;;;;;;;0.40;0.40;;;12.20;99.90;;;;;;5036652;28;20211;-79
2022/09/25 18:13:06;;;;;;;0.40;0.40;;;12.10;99.90;;;;;;5033896;28;20673;-78
2022/09/25 18:15:35;;;;;;;0.50;0.50;;;12.00;99.90;;;;;;5034882;28;20262;-78
2022/09/25 18:18:01;;;;;;;0.47;0.47;;;11.90;99.90;;;;;;5034018;28;20284;-79
2022/09/25 18:23:11;;;;;;;0.40;0.40;;;11.70;99.90;;;;;;5039782;28;20210;-80
2022/09/25 18:25:39;;;;;;;0.57;0.57;;;11.70;99.90;;;;;;5063387;22;20243;-77
2022/09/25 18:28:06;;;;;;;0.50;0.50;;;11.60;99.90;;;;;;5091137;28;20221;-77
2022/09/25 18:30:31;;;;;;;0.50;0.50;;;11.60;99.90;;;;;;5091907;28;20182;-77
2022/09/25 18:32:57;;;;;;;0.40;0.40;;;11.50;99.90;;;;;;5091741;28;20182;-77
2022/09/25 18:35:22;;;;;;;0.50;0.50;;;11.50;99.90;;;;;;5092034;28;20177;-78
2022/09/25 18:37:48;;;;;;;0.40;0.40;;;11.50;99.90;;;;;;5090286;28;20653;-76
2022/09/25 18:40:16;;;;;;;0.50;0.50;;;11.50;99.90;;;;;;5090799;28;20645;-74
2022/09/25 18:42:41;;;;;;;0.50;0.50;;;11.40;99.90;;;;;;5090349;28;20173;-74
2022/09/25 18:45:10;;;;;;;0.40;0.40;;;11.50;99.90;;;;;;5091218;28;20239;-74
2022/09/25 18:47:36;;;;;;;0.50;0.50;;;11.50;99.90;;;;;;5090573;28;20170;-73
2022/09/25 18:50:03;;;;;;;0.53;0.53;;;11.50;99.90;;;;;;5091141;28;20170;-76
2022/09/25 18:52:28;;;;;;;0.40;0.40;;;11.50;99.90;;;;;;5090832;28;20260;-76
2022/09/25 18:54:54;;;;;;;0.50;0.50;;;11.60;99.90;;;;;;5091392;28;20248;-76
2022/09/25 18:57:20;;;;;;;0.60;0.60;;;11.60;99.90;;;;;;5090679;28;20593;-77
2022/09/25 18:59:45;;;;;;;0.50;0.50;;;11.70;99.90;;;;;;5092490;28;20173;-76
2022/09/25 19:02:28;;;;;;;0.50;0.50;;;11.80;99.90;;;;;;5095251;28;20174;-77
2022/09/25 19:04:55;;;;;;;0.50;0.50;;;11.90;99.90;;;;;;5094889;28;20661;-76
2022/09/25 19:07:22;;;;;;;0.50;0.50;;;11.90;99.90;;;;;;5094188;28;20190;-77
2022/09/25 19:09:48;;;;;;;0.40;0.40;;;12.00;99.90;;;;;;5094378;28;20185;-76
2022/09/25 19:12:15;;;;;;;0.50;0.50;;;12.00;99.90;;;;;;5094689;28;20177;-75
2022/09/25 19:14:44;;;;;;;0.60;0.60;;;12.00;99.90;;;;;;5094897;28;20178;-74
2022/09/25 19:17:11;;;;;;;0.50;0.50;;;12.00;99.90;;;;;;5094854;28;20697;-75
2022/09/25 19:19:39;;;;;;;0.60;0.60;;;12.00;99.90;;;;;;5094392;28;20223;-75
2022/09/25 19:22:06;;;;;;;0.53;0.53;;;12.00;99.90;;;;;;5096133;28;20189;-75
2022/09/25 19:24:40;;;;;;;0.50;0.50;;;12.00;99.90;;;;;;5094683;28;20222;-74
2022/09/25 19:27:06;;;;;;;0.50;0.50;;;12.00;99.90;;;;;;5094642;28;20194;-75
2022/09/25 19:29:35;;;;;;;0.57;0.57;;;12.10;99.90;;;;;;5093934;28;20311;-75
2022/09/25 19:32:04;;;;;;;0.50;0.50;;;12.00;99.90;;;;;;5094742;28;20222;-75
2022/09/25 19:34:31;;;;;;;0.50;0.50;;;12.10;99.90;;;;;;5094375;28;20672;-75
2022/09/25 19:36:57;;;;;;;0.50;0.50;;;12.10;99.90;;;;;;5094579;28;20721;-74
2022/09/25 19:39:23;;;;;;;0.63;0.63;;;12.10;99.90;;;;;;5094283;28;20213;-74
2022/09/25 19:41:49;;;;;;;0.50;0.50;;;12.10;99.90;;;;;;5094794;28;20269;-73
2022/09/25 19:44:16;;;;;;;0.50;0.50;;;12.10;99.90;;;;;;5094891;28;20186;-75
2022/09/25 19:46:43;;;;;;;0.60;0.60;;;12.10;99.90;;;;;;5094736;28;20252;-74
2022/09/25 19:49:12;;;;;;;0.50;0.50;;;12.10;99.90;;;;;;5093918;28;20202;-74
2022/09/25 19:51:38;;;;;;;0.50;0.50;;;12.10;99.90;;;;;;5094306;28;20264;-74
2022/09/25 19:54:06;;;;;;;0.47;0.47;;;12.00;99.90;;;;;;5094007;28;20181;-74
2022/09/25 19:56:32;;;;;;;0.60;0.60;;;12.00;99.90;;;;;;5094134;28;20630;-74
2022/09/25 19:58:58;;;;;;;0.43;0.43;;;12.00;99.90;;;;;;5093143;28;20252;-74
2022/09/25 20:01:26;;;;;;;0.50;0.50;;;12.00;99.90;;;;;;5075780;28;20850;-74
2022/09/25 20:03:54;;;;;;;0.40;0.40;;;12.00;99.90;;;;;;5093846;28;20767;-74
2022/09/25 20:06:20;;;;;;;0.40;0.40;;;12.00;99.90;;;;;;5094112;28;20676;-74
2022/09/25 20:08:46;;;;;;;0.57;0.57;;;12.00;99.90;;;;;;5093342;28;20209;-74
2022/09/25 20:11:21;;;;;;;0.60;0.60;;;12.00;99.90;;;;;;5093174;28;20184;-71
2022/09/25 20:13:49;;;;;;;0.50;0.50;;;12.10;99.90;;;;;;5093995;28;20181;-72
2022/09/25 20:16:17;;;;;;;0.60;0.60;;;12.20;99.90;;;;;;5093817;28;20256;-73
2022/09/25 20:18:47;;;;;;;0.50;0.50;;;12.20;99.90;;;;;;5093104;28;20356;-73
2022/09/25 20:21:16;;;;;;;0.50;0.50;;;12.10;99.90;;;;;;5093736;28;20177;-74
2022/09/25 20:23:42;;;;;;;0.60;0.60;;;12.00;99.90;;;;;;5093846;28;20666;-73
2022/09/25 20:26:14;;;;;;;0.50;0.50;;;12.00;99.90;;;;;;5093444;28;20201;-73
2022/09/25 20:28:41;;;;;;;0.50;0.50;;;11.90;99.90;;;;;;5093076;28;20795;-73
2022/09/25 20:31:09;;;;;;;0.50;0.50;;;12.00;99.90;;;;;;5093684;28;20238;-73
2022/09/25 20:33:35;;;;;;;0.50;0.50;;;11.90;99.90;;;;;;5093511;28;20185;-73
2022/09/25 20:36:06;;;;;;;0.47;0.47;;;11.90;99.90;;;;;;5093404;28;20169;-73
2022/09/25 20:38:32;;;;;;;0.50;0.50;;;11.90;99.90;;;;;;5092589;28;20306;-73
2022/09/25 20:41:04;;;;;;;0.60;0.60;;;11.90;99.90;;;;;;5093321;28;20170;-74
2022/09/25 20:43:30;;;;;;;0.50;0.50;;;11.90;99.90;;;;;;5093346;28;20170;-74
2022/09/25 20:46:08;;;;;;;0.60;0.60;;;11.80;99.90;;;;;;5093067;28;20660;-73
2022/09/25 20:48:38;;;;;;;0.50;0.50;;;11.80;99.90;;;;;;5092439;28;20202;-75
2022/09/25 20:51:06;;;;;;;0.50;0.50;;;11.70;99.90;;;;;;5092901;28;20170;-74
2022/09/25 20:53:32;;;;;;;0.40;0.40;;;11.80;99.90;;;;;;5092855;28;20192;-74
2022/09/25 20:56:08;;;;;;;0.53;0.53;;;11.80;99.90;;;;;;5093070;28;20166;-74
2022/09/25 20:58:35;;;;;;;0.60;0.60;;;11.80;99.90;;;;;;5092996;28;20290;-75
2022/09/25 21:01:03;;;;;;;0.40;0.40;;;11.80;99.90;;;;;;5092912;28;20654;-74
2022/09/25 21:03:30;;;;;;;0.57;0.57;;;11.70;99.90;;;;;;5093003;28;20541;-74
2022/09/25 21:05:59;;;;;;;0.50;0.50;;;11.70;99.90;;;;;;5092827;28;20202;-75
2022/09/25 21:08:27;;;;;;;0.50;0.50;;;11.60;99.90;;;;;;5092564;28;20193;-74
2022/09/25 21:10:52;;;;;;;0.47;0.47;;;11.60;99.90;;;;;;5092677;28;20181;-74
2022/09/25 21:13:18;;;;;;;0.50;0.50;;;11.60;99.90;;;;;;5092923;28;20166;-74
2022/09/25 21:15:43;;;;;;;0.50;0.50;;;11.60;99.90;;;;;;5092729;28;20192;-74
2022/09/25 21:18:10;;;;;;;0.50;0.50;;;11.60;99.90;;;;;;5091893;28;20213;-74
2022/09/25 21:20:35;;;;;;;0.50;0.50;;;11.70;99.90;;;;;;5092532;28;20544;-74
2022/09/25 21:23:01;;;;;;;0.40;0.40;;;11.60;99.90;;;;;;5091983;28;20177;-74
2022/09/25 21:25:27;;;;;;;0.40;0.40;;;11.60;99.90;;;;;;5092541;28;20675;-73
2022/09/25 21:27:53;;;;;;;0.40;0.40;;;11.60;99.90;;;;;;5092068;28;20560;-73
2022/09/25 21:30:18;;;;;;;0.40;0.40;;;11.50;99.90;;;;;;5092524;28;20174;-73
2022/09/25 21:32:44;;;;;;;0.57;0.57;;;11.60;99.90;;;;;;5092385;28;20257;-74
2022/09/25 21:35:10;;;;;;;0.50;0.50;;;11.60;99.90;;;;;;5092533;28;20584;-74
2022/09/25 21:37:35;;;;;;;0.57;0.57;;;11.50;99.90;;;;;;5091787;28;20201;-74
2022/09/25 21:40:01;;;;;;;0.50;0.50;;;11.50;99.90;;;;;;5092243;28;20178;-74
2022/09/25 21:42:26;;;;;;;0.50;0.50;;;11.50;99.90;;;;;;5092492;28;20234;-74
2022/09/25 21:44:53;;;;;;;0.50;0.50;;;11.50;99.90;;;;;;5092146;28;20218;-74
2022/09/25 21:47:18;;;;;;;0.60;0.60;;;11.50;99.90;;;;;;5092027;28;20181;-74
2022/09/25 21:49:44;;;;;;;0.50;0.50;;;11.50;99.90;;;;;;5092179;28;20193;-74
2022/09/25 21:52:09;;;;;;;0.50;0.50;;;11.50;99.90;;;;;;5092240;28;20529;-74
2022/09/25 21:54:35;;;;;;;0.53;0.53;;;11.50;99.90;;;;;;5092169;28;20169;-74
2022/09/25 21:57:00;;;;;;;0.43;0.43;;;11.50;99.90;;;;;;5092071;28;20207;-73
2022/09/25 21:59:26;;;;;;;0.47;0.47;;;11.50;99.90;;;;;;5091481;28;20296;-73
2022/09/25 22:01:52;;;;;;;0.50;0.50;;;11.50;99.90;;;;;;5092375;28;20617;-74
2022/09/25 22:04:17;;;;;;;0.43;0.43;;;11.40;99.90;;;;;;5092107;28;20197;-73
2022/09/25 22:06:45;;;;;;;0.57;0.57;;;11.40;99.90;;;;;;5092060;28;20178;-73
2022/09/25 22:09:20;;;;;;;0.50;0.50;;;11.40;99.90;;;;;;5091340;28;20228;-73
2022/09/25 22:11:46;;;;;;;0.57;0.57;;;11.40;99.90;;;;;;5091870;28;20193;-73
2022/09/25 22:14:13;;;;;;;0.50;0.50;;;11.40;99.90;;;;;;5091653;28;20181;-73
2022/09/25 22:16:41;;;;;;;0.60;0.60;;;11.40;99.90;;;;;;5092005;28;20189;-73
2022/09/25 22:19:13;;;;;;;0.47;0.47;;;11.30;99.90;;;;;;5091305;28;20225;-73
2022/09/25 22:21:39;;;;;;;0.60;0.60;;;11.20;99.90;;;;;;5091740;28;20170;-73
2022/09/25 22:24:05;;;;;;;0.47;0.47;;;11.20;99.90;;;;;;5091614;28;20173;-73
2022/09/25 22:26:34;;;;;;;0.50;0.50;;;11.10;99.90;;;;;;5091533;28;20562;-73
2022/09/25 22:28:59;;;;;;;0.50;0.50;;;11.10;99.90;;;;;;5091010;28;20202;-73
2022/09/25 22:31:27;;;;;;;0.50;0.50;;;11.10;99.90;;;;;;5091697;28;20536;-73
2022/09/25 22:33:59;;;;;;;0.50;0.50;;;11.10;99.90;;;;;;5091391;28;20722;-73
2022/09/25 22:36:26;;;;;;;0.50;0.50;;;11.10;99.90;;;;;;5091409;28;20201;-73
2022/09/25 22:38:52;;;;;;;0.40;0.40;;;11.00;99.90;;;;;;5090728;28;20292;-73
2022/09/25 22:41:18;;;;;;;0.53;0.53;;;11.00;99.90;;;;;;5091282;28;20525;-74
2022/09/25 22:43:43;;;;;;;0.40;0.40;;;11.00;99.90;;;;;;5091574;28;20660;-74
2022/09/25 22:46:11;;;;;;;0.53;0.53;;;11.00;99.90;;;;;;5091499;28;20174;-74
2022/09/25 22:48:36;;;;;;;0.50;0.50;;;11.10;99.90;;;;;;5090884;28;20205;-74
2022/09/25 22:51:09;;;;;;;0.50;0.50;;;11.00;99.90;;;;;;5091511;28;20170;-73
2022/09/25 22:53:34;;;;;;;0.50;0.50;;;11.00;99.90;;;;;;5091068;28;20247;-74
2022/09/25 22:56:07;;;;;;;0.50;0.50;;;11.00;99.90;;;;;;5091218;28;20638;-73
2022/09/25 22:58:33;;;;;;;0.60;0.60;;;11.00;99.90;;;;;;5090823;28;20266;-73
2022/09/25 23:01:01;;;;;;;0.60;0.60;;;11.00;99.90;;;;;;5091325;28;20180;-73
2022/09/25 23:03:27;;;;;;;0.50;0.50;;;11.00;99.90;;;;;;5091243;28;20268;-74
2022/09/25 23:05:52;;;;;;;0.70;0.70;;;11.00;99.90;;;;;;5091096;28;20181;-74
2022/09/25 23:08:18;;;;;;;0.50;0.50;;;11.00;99.90;;;;;;5090306;28;20194;-74
2022/09/25 23:10:43;;;;;;;0.50;0.50;;;11.00;99.90;;;;;;5091324;28;20170;-73
2022/09/25 23:13:09;;;;;;;0.50;0.50;;;11.00;99.90;;;;;;5091260;28;20281;-73
2022/09/25 23:15:38;;;;;;;0.60;0.60;;;11.00;99.90;;;;;;5091184;28;20163;-73
2022/09/25 23:18:05;;;;;;;0.50;0.50;;;10.90;99.90;;;;;;5090460;28;20244;-73
2022/09/25 23:20:31;;;;;;;0.53;0.53;;;10.90;99.90;;;;;;5090905;28;20170;-73
2022/09/25 23:22:56;;;;;;;0.50;0.50;;;10.90;99.90;;;;;;5090850;28;20182;-74
2022/09/25 23:25:22;;;;;;;0.57;0.57;;;10.90;99.90;;;;;;5090963;28;20257;-74
2022/09/25 23:27:48;;;;;;;0.50;0.50;;;10.90;99.90;;;;;;5090579;28;20611;-73
2022/09/25 23:30:14;;;;;;;0.50;0.50;;;10.90;99.90;;;;;;5091125;28;20181;-73
2022/09/25 23:32:40;;;;;;;0.60;0.60;;;10.90;99.90;;;;;;5090939;28;20182;-74
2022/09/25 23:35:06;;;;;;;0.50;0.50;;;10.90;99.90;;;;;;5090965;28;20198;-73
2022/09/25 23:37:32;;;;;;;0.50;0.50;;;10.90;99.90;;;;;;5090142;28;20603;-73
2022/09/25 23:39:57;;;;;;;0.60;0.60;;;10.90;99.90;;;;;;5090927;28;20178;-74
2022/09/25 23:42:23;;;;;;;0.40;0.40;;;10.90;99.90;;;;;;5091133;28;20174;-74
2022/09/25 23:44:49;;;;;;;0.50;0.50;;;10.90;99.90;;;;;;5091407;28;20181;-74
2022/09/25 23:47:15;;;;;;;0.70;0.70;;;10.80;99.90;;;;;;5094625;28;20180;-74
2022/09/25 23:49:41;;;;;;;0.60;0.60;;;10.80;99.90;;;;;;5093951;28;20213;-74
2022/09/25 23:52:07;;;;;;;0.47;0.47;;;10.70;99.90;;;;;;5094334;28;20174;-73
2022/09/25 23:54:32;;;;;;;0.40;0.40;;;10.80;99.90;;;;;;5094799;28;20173;-73
2022/09/25 23:56:58;;;;;;;0.43;0.43;;;10.80;99.90;;;;;;5095041;28;20200;-74
2022/09/25 23:59:24;;;;;;;0.40;0.40;;;10.70;99.90;;;;;;5094073;28;20570;-74
